Flag for Guernsey

Past Weather in St. Peter Port, Guernsey — Yesterday and Last 2 Weeks

Currently: 66 °F. Passing clouds. (Weather station: Guernsey Airport, Guernsey). See more current weather

Past Weather in St. Peter Port — Graph

°F

St. Peter Port Temperature Yesterday

Maximum temperature yesterday: 68 °F (at 3:20 pm)
Minimum temperature yesterday: 55 °F (at 3:50 am)
Average temperature yesterday: 62 °F

High & Low Weather Summary for the Past Weeks

 TemperatureHumidityPressure
High72 °F (Jun 1, 11:50 am)100% (Jun 2, 8:20 am)30.33 "Hg (Jun 2, 8:20 am)
Low52 °F (Jun 3, 9:50 pm)44% (Jun 1, 11:50 am)29.77 "Hg (Jun 2, 3:50 am)
Average60 °F83%30.18 "Hg
* Reported Jun 1 8:20 am — Jun 16 8:50 am, St. Peter Port. Weather by CustomWeather, © 2021

Note: Actual official high and low records may vary slightly from our data, if they occured in-between our weather recording intervals... More about our weather records

St. Peter Port Weather History for the Previous 24 Hours

Scroll right to see more
 ConditionsComfort  
Time TempWeatherWind HumidityBarometerVisibility
8:50 am
Wed, Jun 16
64 °FSunny.6 mph83%29.89 "Hg10 mi
8:20 am64 °FSunny.7 mph83%29.92 "Hg10 mi
7:50 am64 °FSunny.5 mph83%29.92 "Hg10 mi
7:20 am63 °FSunny.5 mph83%29.92 "Hg10 mi
6:50 am61 °FSunny.6 mph88%29.92 "Hg10 mi
6:20 am59 °FSunny.2 mph94%29.92 "Hg10 mi
5:50 am57 °FSunny.3 mph94%29.92 "Hg10 mi
5:20 am55 °FFog.3 mph94%29.95 "Hg3 mi
4:50 am55 °FFog.3 mph94%29.95 "HgN/A
4:20 am57 °FFog.2 mph94%29.95 "HgN/A
3:50 am57 °FClear.1 mph94%29.95 "Hg10 mi
2:50 am57 °FClear.1 mph94%29.98 "Hg10 mi
1:50 am59 °FClear.2 mph94%30.01 "Hg10 mi
12:50 am61 °FClear.5 mph88%30.01 "Hg10 mi
11:50 pm
Tue, Jun 15
57 °FClear.5 mph94%30.04 "Hg10 mi
10:50 pm57 °FClear.6 mph94%30.04 "Hg10 mi
9:50 pm59 °FClear.6 mph94%30.07 "Hg10 mi
8:50 pm63 °FSunny.6 mph83%30.04 "Hg10 mi
8:20 pm64 °FSunny.5 mph78%30.07 "Hg10 mi
7:50 pm64 °FPassing clouds.5 mph78%30.07 "HgN/A
7:20 pm64 °FPassing clouds.6 mph78%30.07 "HgN/A
6:50 pm64 °FPassing clouds.6 mph78%30.09 "HgN/A
6:20 pm64 °FPassing clouds.8 mph78%30.09 "HgN/A
5:50 pm66 °FSunny.7 mph73%30.09 "Hg10 mi
5:20 pm68 °FPassing clouds.6 mph73%30.09 "HgN/A
4:50 pm68 °FPassing clouds.5 mph73%30.12 "HgN/A
4:20 pm68 °FPassing clouds.5 mph69%30.12 "HgN/A
3:50 pm68 °FPassing clouds.5 mph73%30.12 "HgN/A
3:20 pm68 °FPassing clouds.6 mph73%30.12 "HgN/A
2:50 pm66 °FPassing clouds.8 mph73%30.15 "HgN/A
2:20 pm66 °FPassing clouds.8 mph73%30.15 "HgN/A
1:50 pm66 °FPassing clouds.8 mph73%30.15 "HgN/A
1:20 pm66 °FSunny.8 mph73%30.15 "Hg10 mi
12:50 pm66 °FPassing clouds.6 mph78%30.18 "HgN/A
12:20 pm66 °FSunny.6 mph73%30.18 "Hg10 mi
11:50 am66 °FPassing clouds.5 mph73%30.18 "HgN/A
11:20 am66 °FSunny.3 mph73%30.18 "Hg10 mi
10:50 am64 °FPassing clouds.5 mph78%30.18 "HgN/A
10:20 am63 °FPassing clouds.6 mph77%30.18 "HgN/A
Weather by CustomWeather, © 2021

See weather overview